createdAt,value
2018-01-22T00:00:50.862Z,5.30
2018-01-22T00:01:50.779Z,5.10
2018-01-22T00:02:50.695Z,5.50
2018-01-22T00:03:50.611Z,5.00
2018-01-22T00:04:50.528Z,6.40
2018-01-22T00:05:50.445Z,5.30
2018-01-22T00:06:50.360Z,5.50
2018-01-22T00:07:50.278Z,5.40
2018-01-22T00:08:50.194Z,5.50
2018-01-22T00:09:50.112Z,5.10
2018-01-22T00:10:50.028Z,5.80
2018-01-22T00:11:49.945Z,5.50
2018-01-22T00:12:49.860Z,5.20
2018-01-22T00:13:49.778Z,5.50
2018-01-22T00:14:49.693Z,5.00
2018-01-22T00:15:49.609Z,5.80
2018-01-22T00:16:49.529Z,5.50
2018-01-22T00:17:49.442Z,5.60
2018-01-22T00:18:49.359Z,5.60
2018-01-22T00:19:49.275Z,5.60
2018-01-22T00:20:49.191Z,5.50
2018-01-22T00:21:49.109Z,6.10
2018-01-22T00:22:49.023Z,5.50
2018-01-22T00:23:48.944Z,6.20
2018-01-22T00:24:48.856Z,6.40
2018-01-22T00:25:48.774Z,6.00
2018-01-22T00:26:48.689Z,6.50
2018-01-22T00:27:48.606Z,6.30
2018-01-22T00:28:48.522Z,6.90
2018-01-22T00:29:48.438Z,6.40
2018-01-22T00:30:48.353Z,6.40
2018-01-22T00:31:48.270Z,6.60
2018-01-22T00:32:48.186Z,6.60
2018-01-22T00:33:48.102Z,6.70
2018-01-22T00:34:48.018Z,6.70
2018-01-22T00:35:47.934Z,6.40
2018-01-22T00:36:47.852Z,6.70
2018-01-22T00:37:47.767Z,6.70
2018-01-22T00:38:47.682Z,6.90
2018-01-22T00:39:47.599Z,7.40
2018-01-22T00:40:47.516Z,6.70
2018-01-22T00:41:47.430Z,7.20
2018-01-22T00:42:47.347Z,6.80
2018-01-22T00:43:47.264Z,7.00
2018-01-22T00:44:47.180Z,7.50
2018-01-22T00:45:47.099Z,7.10
2018-01-22T00:46:47.013Z,7.60
2018-01-22T00:47:46.927Z,6.90
2018-01-22T00:48:46.844Z,8.20
2018-01-22T00:49:46.759Z,7.60
2018-01-22T00:50:46.675Z,7.20
2018-01-22T00:51:46.592Z,7.70
2018-01-22T00:52:46.507Z,7.80
2018-01-22T00:53:46.424Z,6.80
2018-01-22T00:54:46.338Z,7.60
2018-01-22T00:55:46.253Z,8.00
2018-01-22T00:56:46.174Z,7.00
2018-01-22T00:57:46.087Z,6.90
2018-01-22T00:58:46.002Z,6.70
2018-01-22T00:59:45.918Z,7.30
2018-01-22T01:00:45.834Z,7.60
2018-01-22T01:01:45.749Z,7.00
2018-01-22T01:02:45.667Z,7.10
2018-01-22T01:03:45.582Z,7.50
2018-01-22T01:04:45.498Z,7.20
2018-01-22T01:05:45.414Z,7.50
2018-01-22T01:06:45.331Z,7.40
2018-01-22T01:07:45.246Z,7.60
2018-01-22T01:08:45.163Z,6.90
2018-01-22T01:09:45.080Z,7.30
2018-01-22T01:10:44.994Z,6.60
2018-01-22T01:11:44.910Z,6.30
2018-01-22T01:12:44.830Z,6.50
2018-01-22T01:13:44.751Z,6.80
2018-01-22T01:14:44.659Z,7.00
2018-01-22T01:15:44.575Z,6.80
2018-01-22T01:16:44.491Z,6.70
2018-01-22T01:17:44.408Z,7.40
2018-01-22T01:18:44.323Z,6.30
2018-01-22T01:19:44.238Z,6.40
2018-01-22T01:20:44.156Z,7.00
2018-01-22T01:21:44.072Z,6.80
2018-01-22T01:22:43.988Z,6.40
2018-01-22T01:23:43.905Z,6.70
2018-01-22T01:24:43.821Z,6.50
2018-01-22T01:25:43.738Z,6.70
2018-01-22T01:26:43.654Z,6.90
2018-01-22T01:27:43.569Z,6.50
2018-01-22T01:28:43.486Z,6.40
2018-01-22T01:29:43.404Z,5.90
2018-01-22T01:30:43.318Z,5.70
2018-01-22T01:31:43.233Z,6.10
2018-01-22T01:32:43.151Z,6.10
2018-01-22T01:33:43.067Z,6.00
2018-01-22T01:34:42.988Z,6.40
2018-01-22T01:35:42.900Z,6.00
2018-01-22T01:36:42.816Z,5.80
2018-01-22T01:37:42.732Z,5.90
2018-01-22T01:38:42.648Z,5.60
2018-01-22T01:39:42.565Z,5.90
2018-01-22T01:40:42.481Z,6.10
2018-01-22T01:41:42.399Z,5.90
2018-01-22T01:42:42.318Z,6.30
2018-01-22T01:43:42.229Z,5.90
2018-01-22T01:44:42.147Z,6.30
2018-01-22T01:45:42.062Z,6.10
2018-01-22T01:46:41.980Z,5.90
2018-01-22T01:47:41.894Z,5.90
2018-01-22T01:48:41.811Z,5.70
2018-01-22T01:49:41.728Z,5.20
2018-01-22T01:50:41.793Z,5.90
2018-01-22T01:51:41.559Z,5.60
2018-01-22T01:52:41.476Z,5.70
2018-01-22T01:53:41.392Z,5.60
2018-01-22T01:54:41.307Z,5.00
2018-01-22T01:55:41.224Z,5.40
2018-01-22T01:56:41.141Z,5.40
2018-01-22T01:57:41.057Z,5.60
2018-01-22T01:58:40.972Z,5.50
2018-01-22T01:59:40.889Z,5.60
2018-01-22T02:00:40.805Z,5.40
2018-01-22T02:01:40.722Z,4.90
2018-01-22T02:02:40.636Z,5.40
2018-01-22T02:03:40.553Z,4.90
2018-01-22T02:04:40.470Z,5.00
2018-01-22T02:05:40.386Z,5.30
2018-01-22T02:06:40.302Z,4.70
2018-01-22T02:07:40.219Z,4.80
2018-01-22T02:08:40.135Z,4.60
2018-01-22T02:09:40.052Z,4.50
2018-01-22T02:10:39.967Z,5.10
2018-01-22T02:11:39.882Z,4.70
2018-01-22T02:12:39.800Z,4.60
2018-01-22T02:13:39.717Z,4.90
2018-01-22T02:14:39.632Z,5.00
2018-01-22T02:15:39.556Z,4.70
2018-01-22T02:16:39.467Z,5.10
2018-01-22T02:17:39.381Z,4.60
2018-01-22T02:18:39.297Z,4.70
2018-01-22T02:19:39.214Z,4.60
2018-01-22T02:20:39.130Z,4.60
2018-01-22T02:21:39.046Z,4.30
2018-01-22T02:22:38.962Z,4.40
2018-01-22T02:23:38.878Z,3.90
2018-01-22T02:24:38.800Z,4.20
2018-01-22T02:25:38.711Z,4.20
2018-01-22T02:26:38.629Z,4.00
2018-01-22T02:27:38.544Z,4.30
2018-01-22T02:28:38.458Z,3.80
2018-01-22T02:29:38.376Z,3.80
2018-01-22T02:30:38.292Z,3.80
2018-01-22T02:31:38.259Z,3.90
2018-01-22T02:32:38.127Z,4.30
2018-01-22T02:33:38.042Z,3.80
2018-01-22T02:34:37.957Z,3.60
2018-01-22T02:35:37.874Z,3.80
2018-01-22T02:36:37.790Z,3.80
2018-01-22T02:37:37.707Z,3.70
2018-01-22T02:38:37.623Z,3.50
2018-01-22T02:39:37.540Z,3.50
2018-01-22T02:40:37.456Z,3.10
2018-01-22T02:41:37.372Z,3.30
2018-01-22T02:42:37.289Z,3.10
2018-01-22T02:43:37.205Z,3.20
2018-01-22T02:44:37.122Z,3.50
2018-01-22T02:45:37.038Z,3.60
2018-01-22T02:46:36.954Z,3.10
2018-01-22T02:47:36.870Z,3.00
2018-01-22T02:48:36.786Z,3.40
2018-01-22T02:49:36.704Z,3.10
2018-01-22T02:50:36.619Z,3.30
2018-01-22T02:51:36.535Z,2.90
2018-01-22T02:52:36.451Z,2.60
2018-01-22T02:53:36.368Z,3.10
2018-01-22T02:54:36.283Z,3.00
2018-01-22T02:55:36.200Z,3.10
2018-01-22T02:56:36.118Z,2.90
2018-01-22T02:57:36.032Z,3.00
2018-01-22T02:58:35.947Z,2.90
2018-01-22T02:59:35.864Z,2.80
2018-01-22T03:00:35.781Z,3.10
2018-01-22T03:01:35.696Z,3.00
2018-01-22T03:02:35.611Z,2.80
2018-01-22T03:03:35.527Z,3.10
2018-01-22T03:04:35.445Z,2.70
2018-01-22T03:05:35.360Z,3.00
2018-01-22T03:06:35.276Z,2.80
2018-01-22T03:07:35.191Z,2.60
2018-01-22T03:08:35.111Z,2.60
2018-01-22T03:09:35.025Z,2.80
2018-01-22T03:10:34.942Z,2.80
2018-01-22T03:11:34.856Z,2.80
2018-01-22T03:12:34.774Z,2.60
2018-01-22T03:13:34.688Z,2.60
2018-01-22T03:14:34.604Z,2.60
2018-01-22T03:15:34.521Z,2.60
2018-01-22T03:16:34.437Z,2.70
2018-01-22T03:17:34.353Z,2.30
2018-01-22T03:18:34.268Z,2.50
2018-01-22T03:19:34.185Z,2.30
2018-01-22T03:20:34.101Z,2.40
2018-01-22T03:21:34.017Z,2.40
2018-01-22T03:22:33.932Z,2.40
2018-01-22T03:23:33.848Z,2.30
2018-01-22T03:24:33.765Z,2.20
2018-01-22T03:25:33.681Z,2.40
2018-01-22T03:26:33.597Z,2.30
2018-01-22T03:27:33.511Z,2.30
2018-01-22T03:28:33.429Z,2.20
2018-01-22T03:29:33.345Z,2.20
2018-01-22T03:30:33.260Z,2.10
2018-01-22T03:31:33.178Z,2.20
2018-01-22T03:32:33.093Z,2.20
2018-01-22T03:33:33.011Z,2.50
2018-01-22T03:34:32.925Z,2.10
2018-01-22T03:35:32.844Z,2.40
2018-01-22T03:36:32.758Z,2.50
2018-01-22T03:37:32.674Z,2.30
2018-01-22T03:38:32.592Z,2.10
2018-01-22T03:39:32.505Z,2.10
2018-01-22T03:40:32.423Z,1.90
2018-01-22T03:41:32.339Z,2.10
2018-01-22T03:42:32.255Z,1.90
2018-01-22T03:43:32.172Z,2.10
2018-01-22T03:44:32.088Z,2.00
2018-01-22T03:45:32.005Z,2.00
2018-01-22T03:46:31.920Z,1.80
2018-01-22T03:47:31.837Z,2.10
2018-01-22T03:48:31.753Z,1.90
2018-01-22T03:49:31.669Z,2.00
2018-01-22T03:50:31.586Z,1.90
2018-01-22T03:51:31.503Z,2.00
2018-01-22T03:52:31.420Z,1.70
2018-01-22T03:53:31.335Z,2.10
2018-01-22T03:54:31.250Z,1.90
2018-01-22T03:55:31.167Z,1.80
2018-01-22T03:56:31.086Z,2.00
2018-01-22T03:57:31.000Z,2.00
2018-01-22T03:58:30.915Z,1.90
2018-01-22T03:59:30.833Z,1.80
2018-01-22T04:00:30.750Z,1.90
2018-01-22T04:01:30.666Z,1.70
2018-01-22T04:02:30.582Z,1.80
2018-01-22T04:03:30.499Z,1.80
2018-01-22T04:04:30.416Z,1.80
2018-01-22T04:05:30.332Z,1.50
2018-01-22T04:06:30.252Z,1.60
2018-01-22T04:07:30.165Z,1.60
2018-01-22T04:08:30.081Z,1.50
2018-01-22T04:09:29.998Z,1.60
2018-01-22T04:10:29.914Z,1.50
2018-01-22T04:11:29.830Z,1.50
2018-01-22T04:12:29.749Z,1.60
2018-01-22T04:13:29.664Z,1.60
2018-01-22T04:14:29.579Z,1.50
2018-01-22T04:15:29.497Z,1.80
2018-01-22T04:16:29.413Z,1.50
2018-01-22T04:17:29.330Z,1.50
2018-01-22T04:18:29.246Z,1.60
2018-01-22T04:19:29.163Z,1.60
2018-01-22T04:20:29.079Z,1.60
2018-01-22T04:21:28.996Z,1.60
2018-01-22T04:22:28.912Z,1.50
2018-01-22T04:23:28.828Z,1.50
2018-01-22T04:24:28.746Z,1.60
2018-01-22T04:25:28.661Z,1.70
2018-01-22T04:26:28.578Z,1.50
2018-01-22T04:27:28.493Z,1.70
2018-01-22T04:28:28.411Z,1.50
2018-01-22T04:29:28.328Z,1.40
2018-01-22T04:30:28.244Z,1.40
2018-01-22T04:31:28.159Z,1.60
2018-01-22T04:32:28.077Z,1.50
2018-01-22T04:33:27.994Z,1.60
2018-01-22T04:34:27.908Z,1.60
2018-01-22T04:35:27.826Z,1.40
2018-01-22T04:36:27.742Z,1.80
2018-01-22T04:37:27.660Z,1.60
2018-01-22T04:38:27.575Z,1.60
2018-01-22T04:39:27.492Z,1.80
2018-01-22T04:40:27.409Z,2.40
2018-01-22T04:41:27.325Z,3.40
2018-01-22T04:42:27.242Z,3.80
2018-01-22T04:43:27.158Z,4.20
2018-01-22T04:44:27.076Z,6.30
2018-01-22T04:45:26.992Z,3.80
2018-01-22T04:46:26.907Z,3.80
2018-01-22T04:47:26.824Z,3.00
2018-01-22T04:48:26.753Z,2.30
2018-01-22T04:49:26.658Z,2.10
2018-01-22T04:50:26.573Z,1.60
2018-01-22T04:51:26.489Z,1.90
2018-01-22T04:52:26.406Z,1.70
2018-01-22T04:53:26.323Z,1.60
2018-01-22T04:54:26.239Z,1.80
2018-01-22T04:55:26.155Z,2.00
2018-01-22T04:56:26.072Z,2.40
2018-01-22T04:57:25.989Z,2.10
2018-01-22T04:58:25.905Z,2.50
2018-01-22T04:59:25.821Z,2.50
2018-01-22T05:00:25.737Z,2.50
2018-01-22T05:01:25.655Z,1.70
2018-01-22T05:02:25.570Z,2.00
2018-01-22T05:03:25.486Z,1.90
2018-01-22T05:04:25.404Z,3.00
2018-01-22T05:05:25.320Z,3.20
2018-01-22T05:06:25.235Z,3.80
2018-01-22T05:07:25.152Z,3.50
2018-01-22T05:08:25.069Z,3.90
2018-01-22T05:09:24.985Z,2.70
2018-01-22T05:10:24.902Z,2.50
2018-01-22T05:11:24.818Z,2.20
2018-01-22T05:12:24.735Z,2.10
2018-01-22T05:13:24.651Z,2.20
2018-01-22T05:14:24.568Z,2.30
2018-01-22T05:15:24.484Z,2.10
2018-01-22T05:16:24.401Z,1.80
2018-01-22T05:17:24.336Z,1.70
2018-01-22T05:18:24.234Z,1.80
2018-01-22T05:19:24.151Z,1.70
2018-01-22T05:20:24.067Z,1.70
2018-01-22T05:21:23.985Z,1.70
2018-01-22T05:22:23.899Z,1.60
2018-01-22T05:23:23.820Z,1.70
2018-01-22T05:24:23.734Z,1.70
2018-01-22T05:25:23.651Z,1.50
2018-01-22T05:26:23.567Z,1.60
2018-01-22T05:27:23.485Z,1.50
2018-01-22T05:28:23.401Z,1.50
2018-01-22T05:29:23.373Z,1.50
2018-01-22T05:30:23.234Z,1.60
2018-01-22T05:31:23.149Z,1.50
2018-01-22T05:32:23.070Z,1.70
2018-01-22T05:33:22.984Z,1.80
2018-01-22T05:34:22.900Z,1.90
2018-01-22T05:35:22.816Z,2.10
2018-01-22T05:36:22.733Z,1.80
2018-01-22T05:37:22.649Z,1.70
2018-01-22T05:38:22.616Z,1.80
2018-01-22T05:39:22.483Z,1.80
2018-01-22T05:40:22.400Z,1.50
2018-01-22T05:41:22.317Z,1.70
2018-01-22T05:42:22.231Z,1.70
2018-01-22T05:43:22.149Z,1.50
2018-01-22T05:44:22.067Z,1.70
2018-01-22T05:45:21.988Z,1.60
2018-01-22T05:46:21.900Z,1.60
2018-01-22T05:47:21.815Z,1.90
2018-01-22T05:48:21.731Z,1.90
2018-01-22T05:49:21.649Z,1.80
2018-01-22T05:50:21.565Z,1.80
2018-01-22T05:51:21.481Z,1.90
2018-01-22T05:52:21.398Z,1.90
2018-01-22T05:53:21.314Z,1.80
2018-01-22T05:54:21.230Z,1.80
2018-01-22T05:55:21.147Z,1.90
2018-01-22T05:56:21.064Z,1.90
2018-01-22T05:57:20.981Z,1.80
2018-01-22T05:58:20.896Z,1.60
2018-01-22T05:59:20.814Z,1.70
2018-01-22T06:00:20.730Z,1.90
2018-01-22T06:01:20.647Z,1.80
2018-01-22T06:02:20.607Z,1.90
2018-01-22T06:03:20.480Z,1.90
2018-01-22T06:04:20.396Z,1.90
2018-01-22T06:05:20.313Z,1.80
2018-01-22T06:06:20.233Z,1.60
2018-01-22T06:07:20.146Z,1.90
2018-01-22T06:08:20.064Z,1.90
2018-01-22T06:09:19.979Z,1.70
2018-01-22T06:10:19.894Z,1.70
2018-01-22T06:11:19.812Z,1.80
2018-01-22T06:12:19.729Z,1.70
2018-01-22T06:13:19.646Z,2.00
2018-01-22T06:14:19.561Z,1.60
2018-01-22T06:15:19.478Z,1.90
2018-01-22T06:16:19.395Z,1.90
2018-01-22T06:17:19.314Z,1.60
2018-01-22T06:18:19.227Z,1.80
2018-01-22T06:19:19.144Z,1.70
2018-01-22T06:20:19.061Z,1.80
2018-01-22T06:21:18.978Z,1.70
2018-01-22T06:22:18.894Z,1.70
2018-01-22T06:23:18.813Z,1.50
2018-01-22T06:24:18.727Z,1.70
2018-01-22T06:25:18.644Z,1.90
2018-01-22T06:26:18.560Z,1.90
2018-01-22T06:27:18.477Z,1.50
2018-01-22T06:28:18.394Z,1.60
2018-01-22T06:29:18.311Z,1.50
2018-01-22T06:30:18.226Z,1.80
2018-01-22T06:31:18.144Z,1.70
2018-01-22T06:32:18.060Z,1.80
2018-01-22T06:33:17.976Z,1.70
2018-01-22T06:34:17.892Z,1.80
2018-01-22T06:35:17.809Z,2.00
2018-01-22T06:36:17.725Z,1.80
2018-01-22T06:37:17.643Z,1.80
2018-01-22T06:38:17.558Z,1.60
2018-01-22T06:39:17.475Z,1.70
2018-01-22T06:40:17.392Z,1.90
2018-01-22T06:41:17.308Z,1.60
2018-01-22T06:42:17.226Z,1.70
2018-01-22T06:43:17.141Z,1.60
2018-01-22T06:44:17.059Z,1.70
2018-01-22T06:45:16.974Z,1.50
2018-01-22T06:46:16.891Z,1.60
2018-01-22T06:47:16.808Z,1.40
2018-01-22T06:48:16.724Z,1.60
2018-01-22T06:49:16.642Z,1.50
2018-01-22T06:50:16.557Z,1.60
2018-01-22T06:51:16.474Z,1.50
2018-01-22T06:52:16.416Z,1.90
2018-01-22T06:53:16.308Z,1.70
2018-01-22T06:54:16.224Z,1.40
2018-01-22T06:55:16.143Z,1.20
2018-01-22T06:56:16.058Z,1.30
2018-01-22T06:57:15.975Z,1.50
2018-01-22T06:58:15.891Z,3.10
2018-01-22T06:59:15.808Z,2.10
2018-01-22T07:00:15.725Z,1.70
2018-01-22T07:01:15.642Z,1.70
2018-01-22T07:02:15.558Z,1.70
2018-01-22T07:03:15.475Z,1.80
2018-01-22T07:04:15.392Z,1.60
2018-01-22T07:05:15.309Z,1.50
2018-01-22T07:06:15.225Z,1.50
2018-01-22T07:07:15.143Z,1.80
2018-01-22T07:08:15.061Z,1.60
2018-01-22T07:09:14.978Z,1.40
2018-01-22T07:10:14.893Z,1.50
2018-01-22T07:11:14.813Z,1.40
2018-01-22T07:12:14.727Z,1.50
2018-01-22T07:13:14.645Z,1.60
2018-01-22T07:14:14.562Z,1.70
2018-01-22T07:15:14.479Z,1.80
2018-01-22T07:16:14.397Z,1.70
2018-01-22T07:17:14.313Z,1.80
2018-01-22T07:18:14.231Z,1.90
2018-01-22T07:19:14.149Z,2.20
2018-01-22T07:20:14.065Z,2.30
2018-01-22T07:21:13.983Z,2.00
2018-01-22T07:22:13.900Z,2.10
2018-01-22T07:23:13.818Z,2.20
2018-01-22T07:24:13.736Z,2.60
2018-01-22T07:25:13.652Z,2.10
2018-01-22T07:26:13.569Z,2.50
2018-01-22T07:27:13.487Z,2.10
2018-01-22T07:28:13.404Z,1.70
2018-01-22T07:29:13.322Z,1.70
2018-01-22T07:30:13.244Z,1.80
2018-01-22T07:31:13.156Z,1.70
2018-01-22T07:32:13.074Z,1.80
2018-01-22T07:33:12.994Z,1.50
2018-01-22T07:34:12.909Z,1.90
2018-01-22T07:35:12.826Z,2.30
2018-01-22T07:36:12.744Z,2.10
2018-01-22T07:37:12.662Z,2.00
2018-01-22T07:38:12.579Z,1.80
2018-01-22T07:39:12.497Z,2.00
2018-01-22T07:40:12.414Z,1.90
2018-01-22T07:41:12.335Z,1.90
2018-01-22T07:42:12.250Z,2.00
2018-01-22T07:43:12.168Z,1.80
2018-01-22T07:44:12.087Z,2.10
2018-01-22T07:45:12.003Z,1.90
2018-01-22T07:46:11.920Z,2.10
2018-01-22T07:47:11.838Z,2.20
2018-01-22T07:48:11.756Z,2.10
2018-01-22T07:49:11.674Z,2.20
2018-01-22T07:50:11.591Z,2.10
2018-01-22T07:51:11.509Z,2.10
2018-01-22T07:52:11.428Z,2.20
2018-01-22T07:53:11.344Z,2.00
2018-01-22T07:54:11.262Z,2.20
2018-01-22T07:55:11.180Z,1.80
2018-01-22T07:56:11.098Z,2.10
2018-01-22T07:57:11.016Z,2.20
2018-01-22T07:58:10.933Z,2.40
2018-01-22T07:59:10.851Z,2.20
2018-01-22T08:00:10.772Z,2.00
2018-01-22T08:01:10.687Z,2.00
2018-01-22T08:02:10.610Z,2.20
2018-01-22T08:06:12.946Z,1.80
2018-01-22T08:07:12.865Z,1.90
2018-01-22T08:08:12.782Z,2.60
2018-01-22T08:09:12.700Z,2.60
2018-01-22T08:10:12.637Z,2.00
2018-01-22T08:11:12.535Z,2.10
2018-01-22T08:12:12.453Z,1.90
2018-01-22T08:13:12.370Z,2.00
2018-01-22T08:14:12.325Z,1.90
2018-01-22T08:15:12.207Z,2.20
2018-01-22T08:16:12.124Z,1.80
2018-01-22T08:17:12.044Z,1.70
2018-01-22T08:18:11.959Z,2.10
2018-01-22T08:19:11.877Z,2.10
2018-01-22T08:20:11.815Z,2.00
2018-01-22T08:21:11.712Z,1.50
2018-01-22T08:22:11.630Z,1.60
2018-01-22T08:23:11.549Z,1.50
2018-01-22T08:24:11.464Z,1.60
2018-01-22T08:25:11.383Z,1.70
2018-01-22T08:26:11.300Z,2.00
2018-01-22T08:27:11.220Z,1.80
2018-01-22T08:28:11.136Z,1.60
2018-01-22T08:29:11.054Z,1.90
2018-01-22T08:30:10.971Z,1.80
2018-01-22T08:31:10.889Z,2.00
2018-01-22T08:32:10.807Z,1.80
2018-01-22T08:33:10.725Z,2.00
2018-01-22T08:34:10.647Z,2.40
2018-01-22T08:35:10.560Z,2.10
2018-01-22T08:36:10.478Z,2.10
2018-01-22T08:37:10.395Z,2.20
2018-01-22T08:38:10.315Z,2.00
2018-01-22T08:39:10.232Z,2.20
2018-01-22T08:40:10.150Z,2.60
2018-01-22T08:41:10.068Z,2.30
2018-01-22T08:42:09.986Z,2.10
2018-01-22T08:43:09.904Z,2.40
2018-01-22T08:44:09.822Z,2.10
2018-01-22T08:45:09.740Z,2.10
2018-01-22T08:46:09.659Z,2.50
2018-01-22T08:47:09.577Z,2.30
2018-01-22T08:48:09.493Z,2.20
2018-01-22T08:49:09.416Z,2.00
2018-01-22T08:50:09.330Z,2.30
2018-01-22T08:51:09.249Z,2.10
2018-01-22T08:52:09.167Z,2.00
2018-01-22T08:53:09.106Z,2.50
2018-01-22T08:54:09.004Z,2.30
2018-01-22T08:55:08.923Z,2.60
2018-01-22T08:56:08.840Z,2.00
2018-01-22T08:57:08.758Z,2.20
2018-01-22T08:58:08.676Z,2.10
2018-01-22T08:59:08.595Z,4.40
2018-01-22T09:00:08.513Z,5.00
2018-01-22T09:01:08.431Z,3.90
2018-01-22T09:02:08.350Z,3.50
2018-01-22T09:03:08.267Z,3.50
2018-01-22T09:04:08.186Z,3.20
2018-01-22T09:05:08.104Z,2.40
2018-01-22T09:06:08.023Z,2.20
2018-01-22T09:07:07.941Z,2.40
2018-01-22T09:08:07.859Z,2.40
2018-01-22T09:09:07.777Z,1.50
2018-01-22T09:10:07.696Z,1.80
2018-01-22T09:11:07.614Z,1.80
2018-01-22T09:12:07.532Z,2.30
2018-01-22T09:13:07.450Z,2.30
2018-01-22T09:14:07.369Z,1.80
2018-01-22T09:15:07.288Z,2.00
2018-01-22T09:16:07.207Z,2.40
2018-01-22T09:17:07.127Z,2.10
2018-01-22T09:18:07.043Z,2.40
2018-01-22T09:19:06.962Z,2.60
2018-01-22T09:20:06.885Z,2.40
2018-01-22T09:21:06.799Z,2.60
2018-01-22T09:22:06.718Z,2.50
2018-01-22T09:23:06.636Z,2.40
2018-01-22T09:24:06.554Z,2.80
2018-01-22T09:25:06.473Z,2.50
2018-01-22T09:26:06.392Z,2.30
2018-01-22T09:27:06.311Z,2.10
2018-01-22T09:28:06.228Z,2.10
2018-01-22T09:29:06.148Z,2.00
2018-01-22T09:30:06.066Z,2.50
2018-01-22T09:31:05.985Z,2.80
2018-01-22T09:32:05.903Z,2.90
2018-01-22T09:33:05.822Z,2.70
2018-01-22T09:34:05.740Z,2.20
2018-01-22T09:35:05.660Z,1.90
2018-01-22T09:36:05.578Z,1.60
2018-01-22T09:37:05.496Z,1.90
2018-01-22T09:38:05.416Z,1.30
2018-01-22T09:39:05.335Z,1.40
2018-01-22T09:40:05.254Z,1.90
2018-01-22T09:41:05.172Z,1.60
2018-01-22T09:42:05.091Z,1.50
2018-01-22T09:43:05.012Z,1.10
2018-01-22T09:44:04.930Z,1.20
2018-01-22T09:45:04.847Z,1.30
2018-01-22T09:46:04.766Z,1.20
2018-01-22T09:47:04.686Z,1.30
2018-01-22T09:48:04.604Z,1.40
2018-01-22T09:49:04.575Z,1.20
2018-01-22T09:50:04.443Z,1.40
2018-01-22T09:51:04.362Z,1.10
2018-01-22T09:52:04.280Z,1.40
2018-01-22T09:53:04.200Z,1.30
2018-01-22T09:54:04.119Z,1.30
2018-01-22T09:55:04.039Z,1.50
2018-01-22T09:56:03.960Z,1.40
2018-01-22T09:57:03.877Z,1.30
2018-01-22T09:58:03.795Z,1.50
2018-01-22T09:59:03.715Z,1.40
2018-01-22T10:00:03.634Z,1.50
2018-01-22T10:01:03.553Z,1.50
2018-01-22T10:02:03.472Z,1.60
2018-01-22T10:03:03.392Z,1.40
2018-01-22T10:04:03.311Z,1.40
2018-01-22T10:05:03.231Z,1.30
2018-01-22T10:06:03.150Z,1.40
2018-01-22T10:07:03.069Z,1.50
2018-01-22T10:08:02.989Z,1.40
2018-01-22T10:09:02.958Z,1.40
2018-01-22T10:10:02.828Z,1.60
2018-01-22T10:11:02.748Z,1.50
2018-01-22T10:12:02.669Z,1.50
2018-01-22T10:13:02.587Z,1.50
2018-01-22T10:14:02.506Z,1.50
2018-01-22T10:15:02.472Z,1.50
2018-01-22T10:16:02.344Z,1.50
2018-01-22T10:17:02.267Z,1.50
2018-01-22T10:18:02.184Z,1.20
2018-01-22T10:19:02.104Z,1.40
2018-01-22T10:20:02.023Z,1.30
2018-01-22T10:21:01.942Z,1.70
2018-01-22T10:22:01.863Z,1.70
2018-01-22T10:23:01.782Z,2.10
2018-01-22T10:24:01.704Z,1.80
2018-01-22T10:25:01.622Z,1.60
2018-01-22T10:26:01.542Z,1.80
2018-01-22T10:27:01.462Z,1.60
2018-01-22T10:28:01.381Z,1.60
2018-01-22T10:29:01.301Z,1.80
2018-01-22T10:30:01.221Z,1.90
2018-01-22T10:31:01.142Z,1.70
2018-01-22T10:32:01.061Z,2.40
2018-01-22T10:33:00.981Z,2.50
2018-01-22T10:34:00.900Z,2.20
2018-01-22T10:35:00.822Z,2.80
2018-01-22T10:36:00.741Z,2.20
2018-01-22T10:37:00.662Z,2.10
2018-01-22T10:38:00.582Z,1.80
2018-01-22T10:39:00.502Z,1.60
2018-01-22T10:40:00.421Z,2.10
2018-01-22T10:41:00.342Z,2.10
2018-01-22T10:42:00.262Z,2.40
2018-01-22T10:43:00.182Z,2.00
2018-01-22T10:44:00.101Z,2.10
2018-01-22T10:45:00.029Z,1.90
2018-01-22T10:45:59.942Z,1.70
2018-01-22T10:46:59.863Z,2.00
2018-01-22T10:47:59.781Z,1.90
2018-01-22T10:48:59.703Z,2.20
2018-01-22T10:49:59.623Z,2.10
2018-01-22T10:50:59.544Z,2.10
2018-01-22T10:51:59.466Z,2.00
2018-01-22T10:52:59.383Z,1.50
2018-01-22T10:53:59.304Z,1.60
2018-01-22T10:54:59.225Z,1.50
2018-01-22T10:55:59.145Z,1.70
2018-01-22T10:56:59.065Z,2.40
2018-01-22T10:57:58.986Z,1.70
2018-01-22T10:58:58.906Z,1.90
2018-01-22T10:59:58.826Z,1.90
2018-01-22T11:00:58.750Z,1.70
2018-01-22T11:01:58.667Z,1.50
2018-01-22T11:02:58.588Z,1.60
2018-01-22T11:03:58.509Z,1.90
2018-01-22T11:04:58.430Z,2.10
2018-01-22T11:05:58.354Z,2.30
2018-01-22T11:06:58.272Z,2.70
2018-01-22T11:07:58.192Z,11.60
2018-01-22T11:08:58.112Z,7.60
2018-01-22T11:09:58.033Z,3.20
2018-01-22T11:10:58.009Z,2.80
2018-01-22T11:11:57.875Z,2.40
2018-01-22T11:12:57.795Z,2.30
2018-01-22T11:13:57.716Z,2.70
2018-01-22T11:14:57.637Z,2.90
2018-01-22T11:15:57.657Z,3.30
2018-01-22T11:16:57.481Z,2.60
2018-01-22T11:17:57.400Z,3.30
2018-01-22T11:18:57.347Z,3.30
2018-01-22T11:19:57.242Z,2.70
2018-01-22T11:20:57.162Z,2.70
2018-01-22T11:21:57.083Z,2.60
2018-01-22T11:22:57.005Z,2.80
2018-01-22T11:23:56.925Z,2.50
2018-01-22T11:24:56.847Z,2.30
2018-01-22T11:25:56.767Z,2.60
2018-01-22T11:26:56.689Z,2.70
2018-01-22T11:27:56.609Z,2.70
2018-01-22T11:28:56.529Z,2.70
2018-01-22T11:29:56.451Z,3.20
2018-01-22T11:30:56.373Z,3.00
2018-01-22T11:31:56.292Z,2.60
2018-01-22T11:32:56.213Z,2.90
2018-01-22T11:33:56.135Z,3.20
2018-01-22T11:34:56.057Z,2.90
2018-01-22T11:35:55.977Z,2.70
2018-01-22T11:36:55.900Z,2.80
2018-01-22T11:37:55.819Z,3.20
2018-01-22T11:38:55.741Z,3.20
2018-01-22T11:39:55.662Z,3.30
2018-01-22T11:40:55.583Z,3.80
2018-01-22T11:41:55.504Z,3.60
2018-01-22T11:42:55.432Z,3.40
2018-01-22T11:43:55.347Z,3.90
2018-01-22T11:44:55.269Z,3.40
2018-01-22T11:45:55.190Z,3.50
2018-01-22T11:46:55.113Z,4.10
2018-01-22T11:47:55.034Z,4.10
2018-01-22T11:48:54.959Z,3.70
2018-01-22T11:49:54.877Z,3.80
2018-01-22T11:50:54.799Z,4.10
2018-01-22T11:51:54.720Z,4.00
2018-01-22T11:52:54.641Z,4.10
2018-01-22T11:53:54.563Z,4.20
2018-01-22T11:54:54.485Z,4.60
2018-01-22T11:55:54.406Z,5.20
2018-01-22T11:56:54.328Z,4.40
2018-01-22T11:57:54.256Z,4.40
2018-01-22T11:58:54.172Z,4.40
2018-01-22T11:59:54.093Z,4.50
2018-01-22T12:00:54.017Z,7.90
2018-01-22T12:01:53.936Z,4.90
2018-01-22T12:02:53.859Z,4.40
2018-01-22T12:03:53.780Z,4.40
2018-01-22T12:04:53.702Z,4.00
2018-01-22T12:05:53.624Z,4.90
2018-01-22T12:06:53.545Z,4.10
2018-01-22T12:07:53.466Z,4.40
2018-01-22T12:08:53.388Z,4.00
2018-01-22T12:09:53.310Z,4.40
2018-01-22T12:10:53.232Z,4.90
2018-01-22T12:11:53.154Z,5.10
2018-01-22T12:12:53.075Z,4.20
2018-01-22T12:13:52.997Z,4.50
2018-01-22T12:14:52.927Z,4.40
2018-01-22T12:15:52.842Z,4.60
2018-01-22T12:16:52.763Z,4.70
2018-01-22T12:17:52.698Z,5.10
2018-01-22T12:18:52.607Z,4.80
2018-01-22T12:19:52.527Z,4.40
2018-01-22T12:20:52.450Z,5.10
2018-01-22T12:21:52.371Z,4.70
2018-01-22T12:22:52.294Z,4.70
2018-01-22T12:23:52.215Z,4.40
2018-01-22T12:24:52.137Z,3.80
2018-01-22T12:25:52.058Z,4.30
2018-01-22T12:26:51.981Z,5.00
2018-01-22T12:27:51.902Z,4.80
2018-01-22T12:28:51.823Z,5.10
2018-01-22T12:29:51.747Z,4.90
2018-01-22T12:30:51.668Z,5.00
2018-01-22T12:31:51.588Z,5.50
2018-01-22T12:32:51.511Z,5.20
2018-01-22T12:33:51.434Z,5.60
2018-01-22T12:34:51.355Z,7.20
2018-01-22T12:35:51.276Z,5.90
2018-01-22T12:36:51.198Z,4.70
2018-01-22T12:37:51.120Z,4.90
2018-01-22T12:38:51.042Z,5.40
2018-01-22T12:39:50.963Z,5.30
2018-01-22T12:40:50.886Z,5.60
2018-01-22T12:41:50.808Z,6.10
2018-01-22T12:42:50.730Z,6.00
2018-01-22T12:43:50.802Z,5.20
2018-01-22T12:44:50.573Z,5.70
2018-01-22T12:45:50.496Z,4.90
2018-01-22T12:46:50.419Z,5.20
2018-01-22T12:47:50.340Z,5.10
2018-01-22T12:48:50.262Z,5.40
2018-01-22T12:49:50.184Z,5.10
2018-01-22T12:50:50.107Z,4.90
2018-01-22T12:51:50.028Z,4.70
2018-01-22T12:52:49.950Z,5.10
2018-01-22T12:53:49.873Z,5.40
2018-01-22T12:54:49.797Z,5.50
2018-01-22T12:55:49.717Z,5.30
2018-01-22T12:56:49.641Z,5.40
2018-01-22T12:57:49.562Z,5.20
2018-01-22T12:58:49.486Z,5.30
2018-01-22T12:59:49.407Z,5.20
2018-01-22T13:00:49.329Z,5.10
2018-01-22T13:01:49.255Z,5.10
2018-01-22T13:02:49.174Z,5.70
2018-01-22T13:03:49.096Z,5.60
2018-01-22T13:04:49.019Z,5.60
2018-01-22T13:05:48.942Z,5.30
2018-01-22T13:06:48.865Z,5.70
2018-01-22T13:07:48.786Z,5.70
2018-01-22T13:08:48.710Z,6.10
2018-01-22T13:09:48.632Z,6.10
2018-01-22T13:10:48.556Z,5.80
2018-01-22T13:11:48.477Z,6.10
2018-01-22T13:12:48.400Z,5.90
2018-01-22T13:13:48.323Z,6.40
2018-01-22T13:14:48.246Z,6.30
2018-01-22T13:15:48.168Z,5.90
2018-01-22T13:16:48.091Z,6.10
2018-01-22T13:17:48.013Z,6.00
2018-01-22T13:18:47.936Z,5.70
2018-01-22T13:19:47.858Z,5.40
2018-01-22T13:20:47.781Z,5.90